sensor_id;sensor_type;location;lat;lon;timestamp;P1;durP1;ratioP1;P2;durP2;ratioP2
74519;SDS011;63002;48.134;-1.948;2024-01-30T06:00:06;2.58;;;0.50;;
74519;SDS011;63002;48.134;-1.948;2024-01-30T06:02:33;1.67;;;0.40;;
74519;SDS011;63002;48.134;-1.948;2024-01-30T06:04:59;0.93;;;0.37;;
74519;SDS011;63002;48.134;-1.948;2024-01-30T06:07:25;1.05;;;0.40;;
74519;SDS011;63002;48.134;-1.948;2024-01-30T06:09:50;5.40;;;0.60;;
74519;SDS011;63002;48.134;-1.948;2024-01-30T06:12:16;3.65;;;0.50;;
74519;SDS011;63002;48.134;-1.948;2024-01-30T06:14:42;2.90;;;0.70;;
74519;SDS011;63002;48.134;-1.948;2024-01-30T06:17:08;4.30;;;0.40;;
74519;SDS011;63002;48.134;-1.948;2024-01-30T06:19:34;1.83;;;0.50;;
74519;SDS011;63002;48.134;-1.948;2024-01-30T06:21:59;4.93;;;0.57;;
74519;SDS011;63002;48.134;-1.948;2024-01-30T06:24:25;4.88;;;0.50;;
74519;SDS011;63002;48.134;-1.948;2024-01-30T06:26:52;7.53;;;0.90;;
74519;SDS011;63002;48.134;-1.948;2024-01-30T06:29:18;6.80;;;1.27;;
74519;SDS011;63002;48.134;-1.948;2024-01-30T06:31:44;6.87;;;1.23;;
74519;SDS011;63002;48.134;-1.948;2024-01-30T06:34:10;4.15;;;0.63;;
74519;SDS011;63002;48.134;-1.948;2024-01-30T06:36:38;4.80;;;0.60;;
74519;SDS011;63002;48.134;-1.948;2024-01-30T06:39:04;7.53;;;0.85;;
74519;SDS011;63002;48.134;-1.948;2024-01-30T06:41:30;5.10;;;0.77;;
74519;SDS011;63002;48.134;-1.948;2024-01-30T06:43:56;4.28;;;0.60;;
74519;SDS011;63002;48.134;-1.948;2024-01-30T06:46:22;4.10;;;0.60;;
74519;SDS011;63002;48.134;-1.948;2024-01-30T06:48:48;6.90;;;0.90;;
74519;SDS011;63002;48.134;-1.948;2024-01-30T06:51:13;3.78;;;0.50;;
74519;SDS011;63002;48.134;-1.948;2024-01-30T06:53:39;3.13;;;0.55;;
74519;SDS011;63002;48.134;-1.948;2024-01-30T06:56:05;5.22;;;0.80;;
74519;SDS011;63002;48.134;-1.948;2024-01-30T06:58:31;3.08;;;0.57;;
74519;SDS011;63002;48.134;-1.948;2024-01-30T07:00:57;1.85;;;0.60;;
74519;SDS011;63002;48.134;-1.948;2024-01-30T07:03:23;5.93;;;0.73;;
74519;SDS011;63002;48.134;-1.948;2024-01-30T07:05:53;13.90;;;1.60;;
74519;SDS011;63002;48.134;-1.948;2024-01-30T07:08:18;8.95;;;1.50;;
74519;SDS011;63002;48.134;-1.948;2024-01-30T07:10:44;6.72;;;1.23;;
74519;SDS011;63002;48.134;-1.948;2024-01-30T07:13:13;4.77;;;1.07;;
74519;SDS011;63002;48.134;-1.948;2024-01-30T07:15:41;4.55;;;0.80;;
74519;SDS011;63002;48.134;-1.948;2024-01-30T07:18:07;8.40;;;0.80;;
74519;SDS011;63002;48.134;-1.948;2024-01-30T07:20:34;6.50;;;1.17;;
74519;SDS011;63002;48.134;-1.948;2024-01-30T07:23:00;6.47;;;0.80;;
74519;SDS011;63002;48.134;-1.948;2024-01-30T07:25:27;3.83;;;0.88;;
74519;SDS011;63002;48.134;-1.948;2024-01-30T07:27:54;4.85;;;0.98;;
74519;SDS011;63002;48.134;-1.948;2024-01-30T07:30:21;4.07;;;0.77;;
74519;SDS011;63002;48.134;-1.948;2024-01-30T07:32:46;3.85;;;1.00;;
74519;SDS011;63002;48.134;-1.948;2024-01-30T07:35:13;4.35;;;0.68;;
74519;SDS011;63002;48.134;-1.948;2024-01-30T07:37:39;2.80;;;0.68;;
74519;SDS011;63002;48.134;-1.948;2024-01-30T07:40:05;3.38;;;0.68;;
74519;SDS011;63002;48.134;-1.948;2024-01-30T07:42:32;6.30;;;0.80;;
74519;SDS011;63002;48.134;-1.948;2024-01-30T07:44:58;3.92;;;1.00;;
74519;SDS011;63002;48.134;-1.948;2024-01-30T07:47:25;5.65;;;1.00;;
74519;SDS011;63002;48.134;-1.948;2024-01-30T07:49:50;5.70;;;0.60;;
74519;SDS011;63002;48.134;-1.948;2024-01-30T07:52:16;3.75;;;0.90;;
74519;SDS011;63002;48.134;-1.948;2024-01-30T07:54:48;7.10;;;1.10;;
74519;SDS011;63002;48.134;-1.948;2024-01-30T07:57:15;5.45;;;1.30;;
74519;SDS011;63002;48.134;-1.948;2024-01-30T07:59:44;8.70;;;1.80;;
74519;SDS011;63002;48.134;-1.948;2024-01-30T08:02:11;9.45;;;1.38;;
74519;SDS011;63002;48.134;-1.948;2024-01-30T08:04:38;5.82;;;1.17;;
74519;SDS011;63002;48.134;-1.948;2024-01-30T08:07:04;8.27;;;1.52;;
74519;SDS011;63002;48.134;-1.948;2024-01-30T08:09:30;4.13;;;0.75;;
74519;SDS011;63002;48.134;-1.948;2024-01-30T08:11:56;3.53;;;0.50;;
74519;SDS011;63002;48.134;-1.948;2024-01-30T08:14:27;5.20;;;0.90;;
74519;SDS011;63002;48.134;-1.948;2024-01-30T08:16:55;5.57;;;0.90;;
74519;SDS011;63002;48.134;-1.948;2024-01-30T08:19:21;4.85;;;0.73;;
74519;SDS011;63002;48.134;-1.948;2024-01-30T08:21:46;3.63;;;0.60;;
74519;SDS011;63002;48.134;-1.948;2024-01-30T08:24:12;2.70;;;0.60;;
74519;SDS011;63002;48.134;-1.948;2024-01-30T08:26:38;5.53;;;0.80;;
74519;SDS011;63002;48.134;-1.948;2024-01-30T08:29:03;4.03;;;0.73;;
74519;SDS011;63002;48.134;-1.948;2024-01-30T08:31:29;3.07;;;0.60;;
74519;SDS011;63002;48.134;-1.948;2024-01-30T08:33:55;3.65;;;0.73;;
74519;SDS011;63002;48.134;-1.948;2024-01-30T08:36:20;5.15;;;1.10;;
74519;SDS011;63002;48.134;-1.948;2024-01-30T08:38:50;3.80;;;0.80;;
74519;SDS011;63002;48.134;-1.948;2024-01-30T08:41:16;2.75;;;0.65;;
74519;SDS011;63002;48.134;-1.948;2024-01-30T08:43:41;2.60;;;0.60;;
74519;SDS011;63002;48.134;-1.948;2024-01-30T08:46:07;3.53;;;0.70;;
74519;SDS011;63002;48.134;-1.948;2024-01-30T08:48:33;3.37;;;0.60;;
74519;SDS011;63002;48.134;-1.948;2024-01-30T08:50:58;4.30;;;1.00;;
74519;SDS011;63002;48.134;-1.948;2024-01-30T08:53:24;3.37;;;0.73;;
74519;SDS011;63002;48.134;-1.948;2024-01-30T08:55:50;2.38;;;0.50;;
74519;SDS011;63002;48.134;-1.948;2024-01-30T08:58:15;2.78;;;0.50;;
74519;SDS011;63002;48.134;-1.948;2024-01-30T09:00:43;2.65;;;0.60;;
74519;SDS011;63002;48.134;-1.948;2024-01-30T09:03:09;2.90;;;0.53;;
74519;SDS011;63002;48.134;-1.948;2024-01-30T09:05:34;1.48;;;0.55;;
74519;SDS011;63002;48.134;-1.948;2024-01-30T09:08:00;2.17;;;0.50;;
74519;SDS011;63002;48.134;-1.948;2024-01-30T09:10:26;3.08;;;0.85;;
74519;SDS011;63002;48.134;-1.948;2024-01-30T09:12:51;2.42;;;0.70;;
74519;SDS011;63002;48.134;-1.948;2024-01-30T09:15:17;3.97;;;0.60;;
74519;SDS011;63002;48.134;-1.948;2024-01-30T09:17:44;3.28;;;0.93;;
74519;SDS011;63002;48.134;-1.948;2024-01-30T09:20:09;1.98;;;0.40;;
74519;SDS011;63002;48.134;-1.948;2024-01-30T09:22:35;2.15;;;0.68;;
74519;SDS011;63002;48.134;-1.948;2024-01-30T09:25:01;3.37;;;0.63;;
74519;SDS011;63002;48.134;-1.948;2024-01-30T09:27:27;2.67;;;0.60;;
74519;SDS011;63002;48.134;-1.948;2024-01-30T09:29:53;2.10;;;0.50;;
74519;SDS011;63002;48.134;-1.948;2024-01-30T09:32:19;5.30;;;0.70;;
74519;SDS011;63002;48.134;-1.948;2024-01-30T09:34:45;2.35;;;0.40;;
74519;SDS011;63002;48.134;-1.948;2024-01-30T09:37:10;3.15;;;0.88;;
74519;SDS011;63002;48.134;-1.948;2024-01-30T09:39:36;3.20;;;0.68;;
74519;SDS011;63002;48.134;-1.948;2024-01-30T09:44:37;2.78;;;0.85;;
74519;SDS011;63002;48.134;-1.948;2024-01-30T09:47:03;3.63;;;0.50;;
74519;SDS011;63002;48.134;-1.948;2024-01-30T09:49:33;2.40;;;0.50;;
74519;SDS011;63002;48.134;-1.948;2024-01-30T09:52:00;2.17;;;0.60;;
74519;SDS011;63002;48.134;-1.948;2024-01-30T09:54:30;2.38;;;0.40;;
74519;SDS011;63002;48.134;-1.948;2024-01-30T09:57:00;2.33;;;0.90;;
74519;SDS011;63002;48.134;-1.948;2024-01-30T09:59:26;2.40;;;0.60;;
74519;SDS011;63002;48.134;-1.948;2024-01-30T10:01:52;2.58;;;0.70;;
74519;SDS011;63002;48.134;-1.948;2024-01-30T10:04:17;1.80;;;0.50;;
74519;SDS011;63002;48.134;-1.948;2024-01-30T10:06:43;2.40;;;0.60;;
74519;SDS011;63002;48.134;-1.948;2024-01-30T10:09:09;2.55;;;0.60;;
74519;SDS011;63002;48.134;-1.948;2024-01-30T10:11:36;5.53;;;0.60;;
74519;SDS011;63002;48.134;-1.948;2024-01-30T10:14:02;2.53;;;0.70;;
74519;SDS011;63002;48.134;-1.948;2024-01-30T10:16:27;2.17;;;0.43;;
74519;SDS011;63002;48.134;-1.948;2024-01-30T10:18:53;2.60;;;0.50;;
74519;SDS011;63002;48.134;-1.948;2024-01-30T10:21:19;2.00;;;0.57;;
74519;SDS011;63002;48.134;-1.948;2024-01-30T10:23:46;2.45;;;0.60;;
74519;SDS011;63002;48.134;-1.948;2024-01-30T10:26:12;1.90;;;0.47;;
74519;SDS011;63002;48.134;-1.948;2024-01-30T10:28:37;1.58;;;0.50;;
74519;SDS011;63002;48.134;-1.948;2024-01-30T10:31:03;2.03;;;0.53;;
74519;SDS011;63002;48.134;-1.948;2024-01-30T10:33:32;1.80;;;0.50;;
74519;SDS011;63002;48.134;-1.948;2024-01-30T10:36:01;1.90;;;0.50;;
74519;SDS011;63002;48.134;-1.948;2024-01-30T10:38:28;1.50;;;0.40;;
74519;SDS011;63002;48.134;-1.948;2024-01-30T10:41:01;1.67;;;0.40;;
74519;SDS011;63002;48.134;-1.948;2024-01-30T10:43:32;2.03;;;0.50;;
74519;SDS011;63002;48.134;-1.948;2024-01-30T10:46:10;2.20;;;0.50;;
74519;SDS011;63002;48.134;-1.948;2024-01-30T10:48:43;2.63;;;0.60;;
74519;SDS011;63002;48.134;-1.948;2024-01-30T10:51:12;1.67;;;0.33;;
74519;SDS011;63002;48.134;-1.948;2024-01-30T10:53:39;1.67;;;0.40;;
74519;SDS011;63002;48.134;-1.948;2024-01-30T10:56:06;2.25;;;0.70;;
74519;SDS011;63002;48.134;-1.948;2024-01-30T10:58:33;2.58;;;0.60;;
74519;SDS011;63002;48.134;-1.948;2024-01-30T11:00:59;2.17;;;0.77;;
74519;SDS011;63002;48.134;-1.948;2024-01-30T11:03:25;2.28;;;0.50;;
74519;SDS011;63002;48.134;-1.948;2024-01-30T11:05:51;2.25;;;0.40;;
74519;SDS011;63002;48.134;-1.948;2024-01-30T11:08:26;2.00;;;0.60;;
74519;SDS011;63002;48.134;-1.948;2024-01-30T11:10:57;1.83;;;0.40;;
74519;SDS011;63002;48.134;-1.948;2024-01-30T11:13:27;2.55;;;0.50;;
74519;SDS011;63002;48.134;-1.948;2024-01-30T11:16:03;2.08;;;0.52;;
74519;SDS011;63002;48.134;-1.948;2024-01-30T11:18:30;1.90;;;0.82;;
74519;SDS011;63002;48.134;-1.948;2024-01-30T11:21:00;1.90;;;0.50;;
74519;SDS011;63002;48.134;-1.948;2024-01-30T11:23:30;1.88;;;0.47;;
74519;SDS011;63002;48.134;-1.948;2024-01-30T11:25:56;1.20;;;0.40;;
74519;SDS011;63002;48.134;-1.948;2024-01-30T11:28:22;1.10;;;0.50;;
74519;SDS011;63002;48.134;-1.948;2024-01-30T11:30:48;1.58;;;0.60;;
74519;SDS011;63002;48.134;-1.948;2024-01-30T11:33:29;2.83;;;0.60;;
74519;SDS011;63002;48.134;-1.948;2024-01-30T11:35:57;2.37;;;0.53;;
74519;SDS011;63002;48.134;-1.948;2024-01-30T11:38:27;3.28;;;0.50;;
74519;SDS011;63002;48.134;-1.948;2024-01-30T11:40:54;2.20;;;0.40;;
74519;SDS011;63002;48.134;-1.948;2024-01-30T11:43:23;2.03;;;0.50;;
74519;SDS011;63002;48.134;-1.948;2024-01-30T11:45:49;2.22;;;0.55;;
74519;SDS011;63002;48.134;-1.948;2024-01-30T11:48:15;1.10;;;0.40;;
74519;SDS011;63002;48.134;-1.948;2024-01-30T11:50:41;2.03;;;0.40;;
74519;SDS011;63002;48.134;-1.948;2024-01-30T11:53:09;1.67;;;0.57;;
74519;SDS011;63002;48.134;-1.948;2024-01-30T11:55:35;2.05;;;0.70;;
74519;SDS011;63002;48.134;-1.948;2024-01-30T11:58:02;2.35;;;0.57;;
74519;SDS011;63002;48.134;-1.948;2024-01-30T12:00:31;1.42;;;0.57;;
74519;SDS011;63002;48.134;-1.948;2024-01-30T12:02:58;1.83;;;0.55;;
74519;SDS011;63002;48.134;-1.948;2024-01-30T12:05:26;1.98;;;0.80;;
74519;SDS011;63002;48.134;-1.948;2024-01-30T12:07:52;1.73;;;0.50;;
74519;SDS011;63002;48.134;-1.948;2024-01-30T12:10:18;2.10;;;0.60;;
74519;SDS011;63002;48.134;-1.948;2024-01-30T12:12:50;1.17;;;0.40;;
74519;SDS011;63002;48.134;-1.948;2024-01-30T12:15:16;1.88;;;0.50;;
74519;SDS011;63002;48.134;-1.948;2024-01-30T12:17:43;3.08;;;0.60;;
74519;SDS011;63002;48.134;-1.948;2024-01-30T12:20:13;1.63;;;0.40;;
74519;SDS011;63002;48.134;-1.948;2024-01-30T12:22:41;2.13;;;0.45;;
74519;SDS011;63002;48.134;-1.948;2024-01-30T12:25:12;1.73;;;0.50;;
74519;SDS011;63002;48.134;-1.948;2024-01-30T12:27:39;1.60;;;0.50;;
74519;SDS011;63002;48.134;-1.948;2024-01-30T12:30:08;1.97;;;0.40;;
74519;SDS011;63002;48.134;-1.948;2024-01-30T12:32:36;2.38;;;0.47;;
74519;SDS011;63002;48.134;-1.948;2024-01-30T12:35:02;1.20;;;0.40;;
74519;SDS011;63002;48.134;-1.948;2024-01-30T12:37:29;1.10;;;0.50;;
74519;SDS011;63002;48.134;-1.948;2024-01-30T12:39:55;2.20;;;0.60;;
74519;SDS011;63002;48.134;-1.948;2024-01-30T12:42:21;1.83;;;0.50;;
74519;SDS011;63002;48.134;-1.948;2024-01-30T12:44:47;2.13;;;0.50;;
74519;SDS011;63002;48.134;-1.948;2024-01-30T12:47:14;1.73;;;0.60;;
74519;SDS011;63002;48.134;-1.948;2024-01-30T12:49:41;1.17;;;0.40;;
74519;SDS011;63002;48.134;-1.948;2024-01-30T12:52:10;1.37;;;0.40;;
74519;SDS011;63002;48.134;-1.948;2024-01-30T12:54:37;1.48;;;0.40;;
74519;SDS011;63002;48.134;-1.948;2024-01-30T12:57:03;1.88;;;0.40;;
74519;SDS011;63002;48.134;-1.948;2024-01-30T12:59:29;1.92;;;0.55;;
74519;SDS011;63002;48.134;-1.948;2024-01-30T13:01:55;2.47;;;0.63;;
74519;SDS011;63002;48.134;-1.948;2024-01-30T13:04:22;1.20;;;0.43;;
74519;SDS011;63002;48.134;-1.948;2024-01-30T13:06:48;1.38;;;0.50;;
74519;SDS011;63002;48.134;-1.948;2024-01-30T13:09:14;2.95;;;1.15;;
74519;SDS011;63002;48.134;-1.948;2024-01-30T13:11:39;2.05;;;0.80;;
74519;SDS011;63002;48.134;-1.948;2024-01-30T13:14:05;1.83;;;0.47;;
74519;SDS011;63002;48.134;-1.948;2024-01-30T13:16:31;1.40;;;0.50;;
74519;SDS011;63002;48.134;-1.948;2024-01-30T13:18:56;0.68;;;0.20;;
74519;SDS011;63002;48.134;-1.948;2024-01-30T13:21:22;0.80;;;0.30;;
74519;SDS011;63002;48.134;-1.948;2024-01-30T13:23:48;1.33;;;0.40;;
74519;SDS011;63002;48.134;-1.948;2024-01-30T13:26:18;1.10;;;0.40;;
74519;SDS011;63002;48.134;-1.948;2024-01-30T13:28:43;1.37;;;0.43;;
74519;SDS011;63002;48.134;-1.948;2024-01-30T13:31:09;1.60;;;0.50;;
74519;SDS011;63002;48.134;-1.948;2024-01-30T13:33:35;1.52;;;0.40;;
74519;SDS011;63002;48.134;-1.948;2024-01-30T13:36:01;1.47;;;0.40;;
74519;SDS011;63002;48.134;-1.948;2024-01-30T13:38:27;1.70;;;0.40;;
74519;SDS011;63002;48.134;-1.948;2024-01-30T13:40:52;1.27;;;0.50;;
74519;SDS011;63002;48.134;-1.948;2024-01-30T13:43:18;0.93;;;0.40;;
74519;SDS011;63002;48.134;-1.948;2024-01-30T13:45:44;1.60;;;0.60;;
74519;SDS011;63002;48.134;-1.948;2024-01-30T13:48:10;1.15;;;0.50;;
74519;SDS011;63002;48.134;-1.948;2024-01-30T13:50:37;1.52;;;0.50;;
74519;SDS011;63002;48.134;-1.948;2024-01-30T13:53:02;1.40;;;0.40;;
74519;SDS011;63002;48.134;-1.948;2024-01-30T13:55:29;1.02;;;0.40;;
74519;SDS011;63002;48.134;-1.948;2024-01-30T13:57:55;2.13;;;0.57;;
74519;SDS011;63002;48.134;-1.948;2024-01-30T14:00:21;1.23;;;0.30;;
74519;SDS011;63002;48.134;-1.948;2024-01-30T14:02:48;1.88;;;0.55;;
74519;SDS011;63002;48.134;-1.948;2024-01-30T14:05:13;1.73;;;0.47;;
74519;SDS011;63002;48.134;-1.948;2024-01-30T14:07:40;1.23;;;0.57;;
74519;SDS011;63002;48.134;-1.948;2024-01-30T14:10:08;1.42;;;0.30;;
74519;SDS011;63002;48.134;-1.948;2024-01-30T14:12:36;1.30;;;0.32;;
74519;SDS011;63002;48.134;-1.948;2024-01-30T14:15:02;1.65;;;0.70;;
74519;SDS011;63002;48.134;-1.948;2024-01-30T14:17:27;1.10;;;0.30;;
74519;SDS011;63002;48.134;-1.948;2024-01-30T14:19:53;0.73;;;0.30;;
74519;SDS011;63002;48.134;-1.948;2024-01-30T14:22:19;0.90;;;0.40;;
74519;SDS011;63002;48.134;-1.948;2024-01-30T14:24:44;0.93;;;0.30;;
74519;SDS011;63002;48.134;-1.948;2024-01-30T14:27:10;1.27;;;0.57;;
74519;SDS011;63002;48.134;-1.948;2024-01-30T14:29:36;1.23;;;0.50;;
74519;SDS011;63002;48.134;-1.948;2024-01-30T14:32:02;1.40;;;0.50;;
74519;SDS011;63002;48.134;-1.948;2024-01-30T14:34:29;1.05;;;0.47;;
74519;SDS011;63002;48.134;-1.948;2024-01-30T14:36:54;1.45;;;0.47;;
74519;SDS011;63002;48.134;-1.948;2024-01-30T14:39:20;1.30;;;0.30;;
74519;SDS011;63002;48.134;-1.948;2024-01-30T14:41:47;1.20;;;0.35;;
74519;SDS011;63002;48.134;-1.948;2024-01-30T14:44:12;0.85;;;0.30;;
74519;SDS011;63002;48.134;-1.948;2024-01-30T14:46:39;1.30;;;0.45;;
74519;SDS011;63002;48.134;-1.948;2024-01-30T14:49:05;1.23;;;0.50;;
74519;SDS011;63002;48.134;-1.948;2024-01-30T14:51:32;1.58;;;0.50;;
74519;SDS011;63002;48.134;-1.948;2024-01-30T14:53:59;1.50;;;0.45;;
74519;SDS011;63002;48.134;-1.948;2024-01-30T14:56:25;1.27;;;0.30;;
74519;SDS011;63002;48.134;-1.948;2024-01-30T14:58:51;1.27;;;0.50;;
74519;SDS011;63002;48.134;-1.948;2024-01-30T15:01:17;1.35;;;0.30;;
74519;SDS011;63002;48.134;-1.948;2024-01-30T15:03:44;1.17;;;0.32;;
74519;SDS011;63002;48.134;-1.948;2024-01-30T15:06:12;0.70;;;0.30;;
74519;SDS011;63002;48.134;-1.948;2024-01-30T15:08:37;1.00;;;0.30;;
74519;SDS011;63002;48.134;-1.948;2024-01-30T15:11:03;0.88;;;0.32;;
74519;SDS011;63002;48.134;-1.948;2024-01-30T15:13:30;1.27;;;0.50;;
74519;SDS011;63002;48.134;-1.948;2024-01-30T15:15:56;1.58;;;0.50;;
74519;SDS011;63002;48.134;-1.948;2024-01-30T15:18:22;0.88;;;0.35;;
74519;SDS011;63002;48.134;-1.948;2024-01-30T15:20:47;1.02;;;0.40;;
74519;SDS011;63002;48.134;-1.948;2024-01-30T15:23:14;1.50;;;0.40;;
74519;SDS011;63002;48.134;-1.948;2024-01-30T15:25:40;0.90;;;0.20;;
74519;SDS011;63002;48.134;-1.948;2024-01-30T15:28:07;1.38;;;0.50;;
74519;SDS011;63002;48.134;-1.948;2024-01-30T15:30:34;0.93;;;0.40;;
74519;SDS011;63002;48.134;-1.948;2024-01-30T15:33:00;1.10;;;0.32;;
74519;SDS011;63002;48.134;-1.948;2024-01-30T15:35:25;1.40;;;0.37;;
74519;SDS011;63002;48.134;-1.948;2024-01-30T15:37:51;1.77;;;0.50;;
74519;SDS011;63002;48.134;-1.948;2024-01-30T15:40:17;1.23;;;0.50;;
74519;SDS011;63002;48.134;-1.948;2024-01-30T15:42:43;1.00;;;0.30;;
74519;SDS011;63002;48.134;-1.948;2024-01-30T15:45:09;1.23;;;0.60;;
74519;SDS011;63002;48.134;-1.948;2024-01-30T15:47:35;0.93;;;0.32;;
74519;SDS011;63002;48.134;-1.948;2024-01-30T15:50:01;3.15;;;1.02;;
74519;SDS011;63002;48.134;-1.948;2024-01-30T15:52:28;1.83;;;0.30;;
74519;SDS011;63002;48.134;-1.948;2024-01-30T15:54:54;1.98;;;0.35;;
74519;SDS011;63002;48.134;-1.948;2024-01-30T15:57:20;1.87;;;0.50;;
74519;SDS011;63002;48.134;-1.948;2024-01-30T15:59:46;1.35;;;0.40;;
74519;SDS011;63002;48.134;-1.948;2024-01-30T16:02:14;1.75;;;0.57;;
74519;SDS011;63002;48.134;-1.948;2024-01-30T16:04:40;1.47;;;0.57;;
74519;SDS011;63002;48.134;-1.948;2024-01-30T16:07:06;2.08;;;0.60;;
74519;SDS011;63002;48.134;-1.948;2024-01-30T16:09:31;1.30;;;0.50;;
74519;SDS011;63002;48.134;-1.948;2024-01-30T16:11:57;2.28;;;0.40;;
74519;SDS011;63002;48.134;-1.948;2024-01-30T16:14:23;2.28;;;0.60;;
74519;SDS011;63002;48.134;-1.948;2024-01-30T16:16:49;1.10;;;0.30;;
74519;SDS011;63002;48.134;-1.948;2024-01-30T16:19:15;1.13;;;0.40;;
74519;SDS011;63002;48.134;-1.948;2024-01-30T16:21:40;4.13;;;0.70;;
74519;SDS011;63002;48.134;-1.948;2024-01-30T16:24:09;2.13;;;0.60;;
74519;SDS011;63002;48.134;-1.948;2024-01-30T16:26:35;1.70;;;0.50;;
74519;SDS011;63002;48.134;-1.948;2024-01-30T16:29:00;2.35;;;0.52;;
74519;SDS011;63002;48.134;-1.948;2024-01-30T16:31:26;2.30;;;0.43;;
74519;SDS011;63002;48.134;-1.948;2024-01-30T16:33:52;1.98;;;0.70;;
74519;SDS011;63002;48.134;-1.948;2024-01-30T16:36:18;3.20;;;0.50;;
74519;SDS011;63002;48.134;-1.948;2024-01-30T16:38:46;1.67;;;0.47;;
74519;SDS011;63002;48.134;-1.948;2024-01-30T16:41:11;2.53;;;0.45;;
74519;SDS011;63002;48.134;-1.948;2024-01-30T16:43:37;3.80;;;0.70;;
74519;SDS011;63002;48.134;-1.948;2024-01-30T16:46:03;2.65;;;0.57;;
74519;SDS011;63002;48.134;-1.948;2024-01-30T16:48:29;1.48;;;0.30;;
74519;SDS011;63002;48.134;-1.948;2024-01-30T16:50:55;2.08;;;0.55;;
74519;SDS011;63002;48.134;-1.948;2024-01-30T16:53:21;1.20;;;0.50;;
74519;SDS011;63002;48.134;-1.948;2024-01-30T16:55:47;1.50;;;0.60;;
74519;SDS011;63002;48.134;-1.948;2024-01-30T16:58:13;2.90;;;0.60;;
74519;SDS011;63002;48.134;-1.948;2024-01-30T17:00:39;3.17;;;0.40;;
74519;SDS011;63002;48.134;-1.948;2024-01-30T17:03:05;1.10;;;0.43;;
74519;SDS011;63002;48.134;-1.948;2024-01-30T17:05:31;1.95;;;0.60;;
74519;SDS011;63002;48.134;-1.948;2024-01-30T17:07:56;4.87;;;0.60;;
74519;SDS011;63002;48.134;-1.948;2024-01-30T17:10:23;14.45;;;1.38;;
74519;SDS011;63002;48.134;-1.948;2024-01-30T17:12:49;9.35;;;0.98;;
74519;SDS011;63002;48.134;-1.948;2024-01-30T17:15:15;9.80;;;1.30;;
74519;SDS011;63002;48.134;-1.948;2024-01-30T17:17:41;8.77;;;1.02;;
74519;SDS011;63002;48.134;-1.948;2024-01-30T17:20:07;6.28;;;1.02;;
74519;SDS011;63002;48.134;-1.948;2024-01-30T17:22:33;9.30;;;1.00;;
74519;SDS011;63002;48.134;-1.948;2024-01-30T17:24:59;6.05;;;0.90;;
74519;SDS011;63002;48.134;-1.948;2024-01-30T17:27:24;5.57;;;0.90;;
74519;SDS011;63002;48.134;-1.948;2024-01-30T17:29:50;9.32;;;1.35;;
74519;SDS011;63002;48.134;-1.948;2024-01-30T17:32:16;6.20;;;1.03;;
74519;SDS011;63002;48.134;-1.948;2024-01-30T17:34:41;11.75;;;1.20;;
74519;SDS011;63002;48.134;-1.948;2024-01-30T17:37:07;7.03;;;1.00;;
74519;SDS011;63002;48.134;-1.948;2024-01-30T17:39:33;5.20;;;0.95;;
74519;SDS011;63002;48.134;-1.948;2024-01-30T17:41:59;4.60;;;0.90;;
74519;SDS011;63002;48.134;-1.948;2024-01-30T17:44:24;5.97;;;0.90;;
74519;SDS011;63002;48.134;-1.948;2024-01-30T17:46:50;5.35;;;1.02;;
74519;SDS011;63002;48.134;-1.948;2024-01-30T17:49:17;5.77;;;1.00;;
74519;SDS011;63002;48.134;-1.948;2024-01-30T17:51:42;3.50;;;0.80;;
74519;SDS011;63002;48.134;-1.948;2024-01-30T17:54:08;12.37;;;1.00;;
74519;SDS011;63002;48.134;-1.948;2024-01-30T17:56:34;5.32;;;0.80;;
74519;SDS011;63002;48.134;-1.948;2024-01-30T17:59:00;6.93;;;1.00;;
74519;SDS011;63002;48.134;-1.948;2024-01-30T18:01:27;12.23;;;1.33;;
74519;SDS011;63002;48.134;-1.948;2024-01-30T18:03:53;6.47;;;1.40;;
74519;SDS011;63002;48.134;-1.948;2024-01-30T18:06:23;6.20;;;0.60;;
74519;SDS011;63002;48.134;-1.948;2024-01-30T18:08:49;6.55;;;1.05;;
74519;SDS011;63002;48.134;-1.948;2024-01-30T18:11:14;5.67;;;1.43;;
74519;SDS011;63002;48.134;-1.948;2024-01-30T18:13:40;7.00;;;1.40;;
74519;SDS011;63002;48.134;-1.948;2024-01-30T18:16:07;5.28;;;1.25;;
74519;SDS011;63002;48.134;-1.948;2024-01-30T18:18:33;3.85;;;0.75;;
74519;SDS011;63002;48.134;-1.948;2024-01-30T18:20:59;4.95;;;1.05;;
74519;SDS011;63002;48.134;-1.948;2024-01-30T18:23:25;6.57;;;1.58;;
74519;SDS011;63002;48.134;-1.948;2024-01-30T18:25:51;6.07;;;1.33;;
74519;SDS011;63002;48.134;-1.948;2024-01-30T18:28:24;8.77;;;1.20;;
74519;SDS011;63002;48.134;-1.948;2024-01-30T18:30:51;8.52;;;1.20;;
74519;SDS011;63002;48.134;-1.948;2024-01-30T18:33:17;7.50;;;1.23;;
74519;SDS011;63002;48.134;-1.948;2024-01-30T18:35:43;9.85;;;1.15;;
74519;SDS011;63002;48.134;-1.948;2024-01-30T18:38:08;5.78;;;1.45;;
74519;SDS011;63002;48.134;-1.948;2024-01-30T18:40:34;5.23;;;1.23;;
74519;SDS011;63002;48.134;-1.948;2024-01-30T18:43:00;5.63;;;1.80;;
74519;SDS011;63002;48.134;-1.948;2024-01-30T18:45:29;4.78;;;1.20;;
74519;SDS011;63002;48.134;-1.948;2024-01-30T18:47:55;5.55;;;1.52;;
74519;SDS011;63002;48.134;-1.948;2024-01-30T18:50:21;7.23;;;1.87;;
74519;SDS011;63002;48.134;-1.948;2024-01-30T18:52:47;7.32;;;1.10;;
74519;SDS011;63002;48.134;-1.948;2024-01-30T18:55:12;8.47;;;1.80;;
74519;SDS011;63002;48.134;-1.948;2024-01-30T18:57:38;9.38;;;2.83;;
74519;SDS011;63002;48.134;-1.948;2024-01-30T19:00:04;8.27;;;2.10;;
74519;SDS011;63002;48.134;-1.948;2024-01-30T19:02:30;10.05;;;2.88;;
74519;SDS011;63002;48.134;-1.948;2024-01-30T19:04:56;10.13;;;3.53;;
74519;SDS011;63002;48.134;-1.948;2024-01-30T19:07:23;10.13;;;2.40;;
74519;SDS011;63002;48.134;-1.948;2024-01-30T19:09:50;6.68;;;2.05;;
74519;SDS011;63002;48.134;-1.948;2024-01-30T19:12:17;6.32;;;1.80;;
74519;SDS011;63002;48.134;-1.948;2024-01-30T19:14:43;6.00;;;1.55;;
74519;SDS011;63002;48.134;-1.948;2024-01-30T19:17:09;8.10;;;2.17;;
74519;SDS011;63002;48.134;-1.948;2024-01-30T19:19:34;7.13;;;2.05;;
74519;SDS011;63002;48.134;-1.948;2024-01-30T19:22:00;8.10;;;2.90;;
74519;SDS011;63002;48.134;-1.948;2024-01-30T19:24:26;8.20;;;2.67;;
74519;SDS011;63002;48.134;-1.948;2024-01-30T19:26:51;7.20;;;2.70;;
74519;SDS011;63002;48.134;-1.948;2024-01-30T19:29:17;12.02;;;2.90;;
74519;SDS011;63002;48.134;-1.948;2024-01-30T19:31:47;10.80;;;3.20;;
74519;SDS011;63002;48.134;-1.948;2024-01-30T19:34:13;8.48;;;3.35;;
74519;SDS011;63002;48.134;-1.948;2024-01-30T19:36:39;13.85;;;3.38;;
74519;SDS011;63002;48.134;-1.948;2024-01-30T19:39:05;8.97;;;3.23;;
74519;SDS011;63002;48.134;-1.948;2024-01-30T19:41:38;12.45;;;3.70;;
74519;SDS011;63002;48.134;-1.948;2024-01-30T19:44:07;7.82;;;2.63;;
74519;SDS011;63002;48.134;-1.948;2024-01-30T19:46:33;8.48;;;2.58;;
74519;SDS011;63002;48.134;-1.948;2024-01-30T19:48:59;8.82;;;2.92;;
74519;SDS011;63002;48.134;-1.948;2024-01-30T19:51:25;11.97;;;2.20;;
74519;SDS011;63002;48.134;-1.948;2024-01-30T19:53:50;10.15;;;2.90;;
74519;SDS011;63002;48.134;-1.948;2024-01-30T19:56:16;7.23;;;2.60;;
74519;SDS011;63002;48.134;-1.948;2024-01-30T19:58:42;8.48;;;2.50;;
74519;SDS011;63002;48.134;-1.948;2024-01-30T20:01:08;9.52;;;2.53;;
74519;SDS011;63002;48.134;-1.948;2024-01-30T20:03:34;7.23;;;2.60;;
74519;SDS011;63002;48.134;-1.948;2024-01-30T20:06:00;8.93;;;2.35;;
74519;SDS011;63002;48.134;-1.948;2024-01-30T20:08:25;6.70;;;2.50;;
74519;SDS011;63002;48.134;-1.948;2024-01-30T20:10:54;8.73;;;2.50;;
74519;SDS011;63002;48.134;-1.948;2024-01-30T20:13:19;9.15;;;2.10;;
74519;SDS011;63002;48.134;-1.948;2024-01-30T20:15:45;7.30;;;2.27;;
74519;SDS011;63002;48.134;-1.948;2024-01-30T20:18:11;8.10;;;2.10;;
74519;SDS011;63002;48.134;-1.948;2024-01-30T20:20:37;8.17;;;2.03;;
74519;SDS011;63002;48.134;-1.948;2024-01-30T20:23:04;9.57;;;2.70;;
74519;SDS011;63002;48.134;-1.948;2024-01-30T20:25:30;8.83;;;3.90;;
74519;SDS011;63002;48.134;-1.948;2024-01-30T20:27:56;10.13;;;3.50;;
74519;SDS011;63002;48.134;-1.948;2024-01-30T20:30:22;9.33;;;3.07;;